Time;durP1;ratioP1;P1;durP2;ratioP2;P2;SDS_P1;SDS_P2;PMS_P1;PMS_P2;Temp;Humidity;BMP_temperature;BMP_pressure;BME280_temperature;BME280_humidity;BME280_pressure;Samples;Min_cycle;Max_cycle;Signal;HPM_P1;HPM_P2
2023/04/08 00:01:58;;;;;;;1.73;1.63;;;21.70;29.40;;;;;;5095133;28;20056;-60
2023/04/08 00:04:26;;;;;;;2.88;2.08;;;21.70;29.40;;;;;;5095542;28;20131;-60
2023/04/08 00:06:55;;;;;;;2.10;1.90;;;21.70;29.40;;;;;;5095538;28;20048;-60
2023/04/08 00:09:22;;;;;;;3.10;2.30;;;21.70;29.40;;;;;;5095993;28;20048;-60
2023/04/08 00:11:49;;;;;;;2.20;1.88;;;21.70;29.40;;;;;;5095203;28;20048;-59
2023/04/08 00:14:16;;;;;;;2.50;1.98;;;21.70;29.40;;;;;;5096295;28;20048;-60
2023/04/08 00:16:43;;;;;;;2.20;1.75;;;21.70;29.50;;;;;;5095753;28;20059;-60
2023/04/08 00:19:11;;;;;;;1.70;1.60;;;21.70;29.40;;;;;;5094977;28;20495;-60
2023/04/08 00:21:38;;;;;;;2.47;1.92;;;21.70;29.50;;;;;;5096072;28;20044;-60
2023/04/08 00:24:05;;;;;;;2.25;2.05;;;21.70;29.90;;;;;;5095916;28;20044;-60
2023/04/08 00:26:33;;;;;;;2.30;2.10;;;21.60;29.50;;;;;;5095559;28;20047;-60
2023/04/08 00:29:00;;;;;;;2.25;2.05;;;21.60;29.50;;;;;;5094336;28;20052;-60
2023/04/08 00:31:27;;;;;;;3.50;2.55;;;21.70;29.50;;;;;;5095216;28;20135;-60
2023/04/08 00:33:55;;;;;;;2.63;2.35;;;21.70;29.50;;;;;;5095264;28;20119;-60
2023/04/08 00:36:22;;;;;;;2.25;1.85;;;21.60;29.50;;;;;;5095662;28;20055;-60
2023/04/08 00:38:49;;;;;;;2.20;2.00;;;21.60;29.50;;;;;;5095122;28;20047;-60
2023/04/08 00:41:17;;;;;;;1.90;1.80;;;21.70;29.50;;;;;;5095626;28;20403;-60
2023/04/08 00:43:45;;;;;;;2.50;2.30;;;21.70;29.50;;;;;;5094431;28;20055;-60
2023/04/08 00:46:12;;;;;;;3.58;2.25;;;21.70;29.50;;;;;;5095094;28;20142;-59
2023/04/08 00:48:39;;;;;;;2.35;2.10;;;21.70;29.60;;;;;;5095619;28;20127;-60
2023/04/08 00:51:07;;;;;;;2.90;2.25;;;21.70;29.50;;;;;;5094454;28;20415;-60
2023/04/08 00:53:34;;;;;;;1.98;1.80;;;21.70;29.50;;;;;;5095507;28;20146;-60
2023/04/08 00:56:03;;;;;;;2.30;1.95;;;21.70;29.50;;;;;;5094025;28;20048;-60
2023/04/08 00:58:30;;;;;;;2.45;2.25;;;21.70;29.60;;;;;;5095681;28;20044;-60
2023/04/08 01:01:09;;;;;;;2.33;2.13;;;21.70;29.60;;;;;;5095455;28;20062;-60
2023/04/08 01:04:00;;;;;;;2.40;2.20;;;21.70;29.60;;;;;;5089859;28;20078;-60
2023/04/08 01:06:41;;;;;;;2.78;2.00;;;21.70;29.60;;;;;;5073984;28;20049;-60
2023/04/08 01:09:11;;;;;;;2.33;2.13;;;21.70;29.60;;;;;;5074477;28;20046;-60
2023/04/08 01:11:43;;;;;;;2.65;2.10;;;21.70;29.60;;;;;;5088250;28;20084;-60
2023/04/08 01:14:16;;;;;;;2.38;1.92;;;21.70;29.60;;;;;;5095490;28;20485;-60
2023/04/08 01:16:45;;;;;;;2.10;2.00;;;21.70;29.60;;;;;;5094167;28;20059;-60
2023/04/08 01:19:25;;;;;;;2.78;2.50;;;21.70;29.60;;;;;;5094516;28;20131;-60
2023/04/08 01:22:00;;;;;;;2.42;2.25;;;21.60;29.60;;;;;;5093656;28;20052;-60
2023/04/08 01:24:32;;;;;;;2.10;1.90;;;21.60;29.60;;;;;;5093502;28;20040;-60
2023/04/08 01:27:02;;;;;;;2.60;2.13;;;21.60;29.60;;;;;;5094241;28;20400;-60
2023/04/08 01:29:30;;;;;;;3.35;2.38;;;21.60;29.60;;;;;;5093861;28;20496;-60
2023/04/08 01:31:58;;;;;;;1.98;1.83;;;21.60;29.60;;;;;;5094263;28;20048;-60
2023/04/08 01:34:25;;;;;;;2.38;2.15;;;21.70;29.70;;;;;;5094269;28;20127;-60
2023/04/08 01:36:54;;;;;;;1.77;1.50;;;21.60;29.60;;;;;;5093290;28;20054;-59
2023/04/08 01:39:25;;;;;;;2.60;2.28;;;21.60;29.70;;;;;;5093848;28;20479;-59
2023/04/08 01:41:54;;;;;;;2.38;2.17;;;21.60;29.70;;;;;;5094614;28;20051;-59
2023/04/08 01:44:23;;;;;;;2.40;2.20;;;21.60;29.70;;;;;;5093843;28;20123;-59
2023/04/08 01:46:51;;;;;;;2.65;2.35;;;21.60;29.70;;;;;;5093894;28;20051;-59
2023/04/08 01:49:21;;;;;;;2.92;2.10;;;21.60;29.70;;;;;;5095110;28;20452;-59
2023/04/08 01:51:50;;;;;;;1.83;1.70;;;21.60;29.70;;;;;;5094049;28;20051;-59
2023/04/08 01:54:17;;;;;;;2.38;2.17;;;21.60;29.70;;;;;;5093514;28;20138;-59
2023/04/08 01:56:45;;;;;;;2.47;2.25;;;21.60;29.70;;;;;;5093234;28;20431;-59
2023/04/08 01:59:15;;;;;;;2.35;2.15;;;21.60;30.10;;;;;;5093693;28;20048;-59
2023/04/08 02:01:45;;;;;;;2.38;1.95;;;21.60;29.70;;;;;;5093138;28;20051;-59
2023/04/08 02:04:12;;;;;;;1.90;1.70;;;21.60;29.70;;;;;;5093095;28;20048;-59
2023/04/08 02:06:40;;;;;;;2.80;2.50;;;21.60;29.70;;;;;;5093102;28;20480;-59
2023/04/08 02:09:08;;;;;;;2.95;2.65;;;21.60;29.70;;;;;;5093290;28;20051;-59
2023/04/08 02:11:35;;;;;;;2.47;2.28;;;21.60;29.80;;;;;;5093462;28;20048;-60
2023/04/08 02:14:02;;;;;;;3.70;2.35;;;21.60;29.80;;;;;;5093429;28;20055;-59
2023/04/08 02:16:38;;;;;;;2.35;2.15;;;21.60;29.80;;;;;;5093736;28;20055;-59
2023/04/08 02:19:24;;;;;;;2.30;2.10;;;21.60;29.80;;;;;;5094319;28;20097;-59
2023/04/08 02:21:56;;;;;;;2.03;1.85;;;21.60;29.80;;;;;;5092526;28;20048;-59
2023/04/08 02:24:25;;;;;;;2.60;2.30;;;21.50;29.70;;;;;;5093354;28;20048;-59
2023/04/08 02:26:55;;;;;;;2.33;2.13;;;21.60;29.80;;;;;;5092824;28;20534;-59
2023/04/08 02:29:23;;;;;;;2.03;1.80;;;21.60;29.80;;;;;;5093232;28;20134;-59
2023/04/08 02:31:51;;;;;;;2.10;1.90;;;21.50;29.80;;;;;;5093690;28;20047;-59
2023/04/08 02:34:21;;;;;;;2.15;1.95;;;21.60;29.80;;;;;;5094018;28;20040;-59
2023/04/08 02:36:49;;;;;;;1.95;1.85;;;21.60;29.80;;;;;;5093187;28;20052;-60
2023/04/08 02:39:17;;;;;;;2.20;2.00;;;21.60;29.80;;;;;;5092200;28;20068;-59
2023/04/08 02:41:44;;;;;;;1.90;1.80;;;21.50;29.80;;;;;;5092990;28;20544;-60
2023/04/08 02:44:11;;;;;;;2.20;2.00;;;21.50;29.80;;;;;;5090916;28;20048;-59
2023/04/08 02:46:38;;;;;;;2.33;2.10;;;21.60;29.90;;;;;;5093238;28;20083;-61
2023/04/08 02:49:05;;;;;;;2.50;2.28;;;21.60;29.90;;;;;;5092577;28;20086;-59
2023/04/08 02:51:32;;;;;;;3.30;2.08;;;21.60;29.90;;;;;;5091676;28;20052;-59
2023/04/08 02:54:00;;;;;;;2.17;1.80;;;21.60;29.90;;;;;;5092304;28;20048;-59
2023/04/08 02:56:27;;;;;;;2.25;1.88;;;21.60;29.90;;;;;;5091152;28;20147;-59
2023/04/08 02:58:55;;;;;;;2.25;2.05;;;21.60;29.80;;;;;;5092276;28;20055;-60
2023/04/08 03:01:22;;;;;;;2.58;2.17;;;21.60;29.90;;;;;;5091516;28;20047;-59
2023/04/08 03:03:50;;;;;;;2.15;1.95;;;21.60;29.80;;;;;;5092777;28;20089;-59
2023/04/08 03:06:17;;;;;;;2.67;2.33;;;21.60;29.90;;;;;;5092579;28;20131;-59
2023/04/08 03:08:44;;;;;;;2.05;1.95;;;21.60;29.80;;;;;;5091964;28;20096;-59
2023/04/08 03:11:11;;;;;;;2.03;1.70;;;21.60;29.80;;;;;;5092698;28;20044;-59
2023/04/08 03:13:39;;;;;;;2.22;2.03;;;21.60;29.90;;;;;;5092258;28;20098;-59
2023/04/08 03:16:06;;;;;;;1.88;1.77;;;21.60;29.90;;;;;;5084361;28;20052;-59
2023/04/08 03:18:33;;;;;;;1.92;1.83;;;21.60;29.90;;;;;;5072312;28;20072;-59
2023/04/08 03:21:02;;;;;;;1.98;1.88;;;21.60;29.90;;;;;;5070750;28;20128;-59
2023/04/08 03:23:29;;;;;;;2.13;1.92;;;21.60;29.90;;;;;;5072299;28;20095;-59
2023/04/08 03:25:56;;;;;;;1.98;1.63;;;21.60;29.90;;;;;;5071998;28;20052;-59
2023/04/08 03:28:23;;;;;;;2.22;1.73;;;21.60;29.90;;;;;;5070729;28;20046;-59
2023/04/08 03:30:50;;;;;;;2.60;2.40;;;21.50;29.90;;;;;;5071721;28;20091;-59
2023/04/08 03:33:17;;;;;;;2.33;2.05;;;21.50;29.90;;;;;;5072134;28;20468;-59
2023/04/08 03:35:44;;;;;;;2.22;2.03;;;21.60;30.00;;;;;;5071186;28;20051;-59
2023/04/08 03:38:12;;;;;;;1.90;1.80;;;21.50;29.90;;;;;;5071453;28;20048;-59
2023/04/08 03:40:40;;;;;;;2.08;1.85;;;21.50;30.40;;;;;;5072199;28;20524;-59
2023/04/08 03:43:07;;;;;;;1.98;1.85;;;21.60;30.00;;;;;;5071848;28;20045;-59
2023/04/08 03:45:34;;;;;;;2.67;2.15;;;21.50;29.90;;;;;;5071345;28;20497;-59
2023/04/08 03:48:02;;;;;;;2.15;1.85;;;21.60;30.00;;;;;;5071371;28;20048;-59
2023/04/08 03:50:29;;;;;;;2.08;1.83;;;21.60;30.00;;;;;;5071683;28;20048;-59
2023/04/08 03:52:57;;;;;;;2.47;2.30;;;21.60;30.00;;;;;;5071388;28;20549;-60
2023/04/08 03:55:24;;;;;;;1.65;1.55;;;21.60;30.00;;;;;;5071696;28;20056;-59
2023/04/08 03:57:51;;;;;;;2.58;1.70;;;21.50;30.00;;;;;;5071524;28;20060;-60
2023/04/08 04:00:18;;;;;;;1.95;1.80;;;21.50;30.00;;;;;;5070983;28;20049;-59
2023/04/08 04:02:45;;;;;;;2.35;2.15;;;21.50;30.00;;;;;;5072337;28;20045;-59
2023/04/08 04:05:13;;;;;;;2.35;2.15;;;21.50;30.00;;;;;;5074885;28;20098;-59
2023/04/08 04:07:40;;;;;;;2.15;1.70;;;21.50;30.00;;;;;;5075653;28;20056;-59
2023/04/08 04:10:09;;;;;;;1.50;1.40;;;21.50;30.00;;;;;;5093310;28;20040;-59
2023/04/08 04:12:36;;;;;;;1.83;1.65;;;21.50;30.00;;;;;;5094214;28;20055;-59
2023/04/08 04:15:03;;;;;;;1.67;1.58;;;21.50;30.00;;;;;;5095447;28;20051;-60
2023/04/08 04:17:31;;;;;;;1.55;1.45;;;21.50;30.00;;;;;;5093929;28;20548;-59
2023/04/08 04:19:58;;;;;;;2.03;1.83;;;21.50;30.50;;;;;;5095218;28;20106;-60
2023/04/08 04:22:25;;;;;;;2.05;1.85;;;21.50;30.00;;;;;;5095274;28;20051;-59
2023/04/08 04:24:52;;;;;;;1.50;1.40;;;21.50;30.00;;;;;;5095970;28;20463;-59
2023/04/08 04:27:19;;;;;;;1.60;1.50;;;21.50;30.00;;;;;;5095038;28;20044;-59
2023/04/08 04:29:46;;;;;;;2.17;1.70;;;21.50;30.00;;;;;;5095016;28;20052;-59
2023/04/08 04:32:14;;;;;;;1.80;1.50;;;21.50;30.00;;;;;;5094544;28;20052;-59
2023/04/08 04:34:41;;;;;;;2.28;2.05;;;21.50;30.00;;;;;;5095421;28;20059;-59
2023/04/08 04:37:08;;;;;;;2.60;2.40;;;21.50;30.00;;;;;;5095225;28;20047;-59
2023/04/08 04:39:35;;;;;;;2.42;2.22;;;21.50;30.00;;;;;;5095327;28;20051;-59
2023/04/08 04:42:03;;;;;;;3.38;2.50;;;21.50;30.00;;;;;;5095231;28;20062;-60
2023/04/08 04:44:30;;;;;;;2.95;2.65;;;21.50;30.00;;;;;;5095230;28;20085;-60
2023/04/08 04:46:57;;;;;;;3.60;3.20;;;21.40;30.00;;;;;;5094521;28;20079;-61
2023/04/08 04:49:24;;;;;;;2.83;2.58;;;21.40;30.00;;;;;;5095603;28;20044;-59
2023/04/08 04:51:51;;;;;;;3.45;2.83;;;21.40;30.00;;;;;;5094324;28;20056;-59
2023/04/08 04:54:19;;;;;;;2.72;2.53;;;21.40;30.10;;;;;;5095406;28;20071;-59
2023/04/08 04:56:46;;;;;;;2.65;2.45;;;21.40;30.10;;;;;;5094429;28;20503;-59
2023/04/08 04:59:13;;;;;;;3.58;2.45;;;21.40;30.00;;;;;;5095012;28;20480;-59
2023/04/08 05:01:40;;;;;;;4.00;2.90;;;21.40;30.00;;;;;;5094971;28;20135;-59
2023/04/08 05:04:07;;;;;;;3.47;2.97;;;21.40;30.00;;;;;;5094372;28;20044;-59
2023/04/08 05:06:35;;;;;;;2.50;2.30;;;21.40;30.00;;;;;;5093844;28;20048;-59
2023/04/08 05:09:02;;;;;;;3.15;2.92;;;21.40;30.10;;;;;;5095292;28;20048;-60
2023/04/08 05:11:29;;;;;;;3.65;2.60;;;21.40;30.10;;;;;;5078047;28;20045;-59
2023/04/08 05:13:57;;;;;;;3.08;2.78;;;21.40;30.10;;;;;;5074905;28;20094;-59
2023/04/08 05:16:24;;;;;;;2.83;2.63;;;21.50;30.10;;;;;;5074672;28;20052;-59
2023/04/08 05:18:52;;;;;;;3.40;2.95;;;21.50;30.10;;;;;;5075319;28;20122;-59
2023/04/08 05:21:19;;;;;;;3.42;3.00;;;21.50;30.10;;;;;;5074871;28;20040;-59
2023/04/08 05:23:46;;;;;;;3.67;3.00;;;21.50;30.00;;;;;;5074705;28;20056;-59
2023/04/08 05:26:13;;;;;;;4.72;3.42;;;21.50;30.00;;;;;;5074903;28;20133;-59
2023/04/08 05:28:42;;;;;;;4.35;3.08;;;21.50;30.00;;;;;;5074740;28;20036;-59
2023/04/08 05:31:10;;;;;;;3.00;2.70;;;21.60;30.00;;;;;;5074158;28;20134;-60
2023/04/08 05:33:37;;;;;;;3.20;3.00;;;21.60;30.00;;;;;;5074247;28;20044;-59
2023/04/08 05:36:05;;;;;;;4.80;3.40;;;21.60;30.00;;;;;;5074274;28;20054;-59
2023/04/08 05:38:32;;;;;;;5.38;3.53;;;21.60;30.00;;;;;;5074915;28;20151;-59
2023/04/08 05:41:00;;;;;;;5.63;3.60;;;21.60;30.00;;;;;;5074344;28;20048;-59
2023/04/08 05:43:27;;;;;;;4.85;3.55;;;21.70;30.00;;;;;;5074707;28;20410;-59
2023/04/08 05:45:55;;;;;;;3.50;3.20;;;21.70;30.00;;;;;;5073811;28;20523;-59
2023/04/08 05:48:22;;;;;;;5.43;3.70;;;21.70;30.00;;;;;;5074308;28;20386;-59
2023/04/08 05:50:49;;;;;;;5.95;4.47;;;21.70;30.00;;;;;;5074205;28;20051;-59
2023/04/08 05:53:16;;;;;;;4.68;3.80;;;21.80;30.00;;;;;;5074103;28;20044;-59
2023/04/08 05:55:44;;;;;;;4.28;3.55;;;21.80;29.90;;;;;;5074473;28;20051;-59
2023/04/08 05:58:11;;;;;;;5.43;4.30;;;21.80;29.90;;;;;;5073954;28;20053;-59
2023/04/08 06:00:39;;;;;;;5.13;4.20;;;21.80;29.90;;;;;;5073875;28;20079;-59
2023/04/08 06:03:06;;;;;;;5.28;4.32;;;21.80;29.90;;;;;;5083640;28;20048;-59
2023/04/08 06:05:33;;;;;;;4.78;4.30;;;21.90;29.90;;;;;;5074294;28;20050;-59
2023/04/08 06:08:00;;;;;;;5.15;4.40;;;21.90;29.90;;;;;;5074281;28;20044;-59
2023/04/08 06:10:27;;;;;;;4.78;4.28;;;21.90;29.80;;;;;;5092948;28;20097;-59
2023/04/08 06:12:55;;;;;;;4.50;3.92;;;21.90;29.80;;;;;;5094399;28;20078;-59
2023/04/08 06:15:22;;;;;;;4.47;3.95;;;22.00;29.80;;;;;;5093602;28;20535;-59
2023/04/08 06:17:49;;;;;;;4.85;4.30;;;22.00;29.80;;;;;;5094002;28;20119;-59
2023/04/08 06:20:17;;;;;;;5.82;4.13;;;22.00;29.80;;;;;;5082529;28;20075;-59
2023/04/08 06:22:44;;;;;;;5.90;4.90;;;22.10;29.80;;;;;;5073553;28;20059;-59
2023/04/08 06:25:11;;;;;;;4.25;3.83;;;22.10;29.80;;;;;;5073440;28;20049;-59
2023/04/08 06:27:38;;;;;;;6.03;4.78;;;22.10;29.70;;;;;;5072973;28;20076;-59
2023/04/08 06:30:06;;;;;;;5.30;4.53;;;22.20;29.70;;;;;;5072845;28;20040;-59
2023/04/08 06:32:35;;;;;;;6.32;4.25;;;22.20;29.70;;;;;;5073876;28;20113;-59
2023/04/08 06:35:02;;;;;;;5.97;5.05;;;22.20;29.70;;;;;;5073615;28;20451;-59
2023/04/08 06:37:29;;;;;;;6.20;4.95;;;22.20;29.60;;;;;;5073322;28;20107;-59
2023/04/08 06:39:56;;;;;;;4.90;4.28;;;22.30;29.60;;;;;;5073379;28;20548;-59
2023/04/08 06:42:23;;;;;;;6.43;4.88;;;22.30;29.60;;;;;;5073282;28;20131;-59
2023/04/08 06:44:50;;;;;;;5.03;4.40;;;22.30;29.60;;;;;;5073637;28;20051;-59
2023/04/08 06:47:17;;;;;;;6.80;5.03;;;22.40;29.60;;;;;;5072802;28;20047;-60
2023/04/08 06:49:45;;;;;;;5.97;4.82;;;22.40;29.50;;;;;;5073463;28;20048;-59
2023/04/08 06:52:12;;;;;;;6.10;4.38;;;22.50;29.60;;;;;;5072947;28;20048;-59
2023/04/08 06:54:41;;;;;;;7.10;4.88;;;22.50;29.50;;;;;;5071771;28;20052;-59
2023/04/08 06:57:08;;;;;;;5.55;4.22;;;22.50;29.50;;;;;;5071704;28;20048;-59
2023/04/08 06:59:35;;;;;;;5.40;4.43;;;22.60;29.50;;;;;;5072793;28;20071;-59
2023/04/08 07:02:02;;;;;;;7.50;5.32;;;22.60;29.50;;;;;;5072593;28;20131;-60
2023/04/08 07:04:30;;;;;;;5.45;4.68;;;22.60;29.40;;;;;;5071573;28;20044;-60
2023/04/08 07:06:57;;;;;;;5.65;4.22;;;22.60;29.40;;;;;;5072038;28;20056;-60
2023/04/08 07:09:24;;;;;;;6.70;4.43;;;22.70;29.40;;;;;;5072499;28;20049;-60
2023/04/08 07:11:51;;;;;;;6.07;4.65;;;22.70;29.80;;;;;;5072245;28;20135;-60
2023/04/08 07:14:19;;;;;;;5.30;4.70;;;22.70;29.30;;;;;;5071834;28;20132;-59
2023/04/08 07:16:46;;;;;;;5.82;4.40;;;22.80;29.30;;;;;;5072420;28;20048;-60
2023/04/08 07:19:13;;;;;;;5.35;4.78;;;22.80;29.30;;;;;;5074893;28;20059;-60
2023/04/08 07:21:40;;;;;;;5.85;4.03;;;22.90;29.30;;;;;;5093050;28;20052;-59
2023/04/08 07:24:08;;;;;;;5.00;4.50;;;22.90;29.30;;;;;;5092954;28;20048;-60
2023/04/08 07:26:35;;;;;;;5.93;5.28;;;23.00;29.30;;;;;;5092856;28;20142;-60
2023/04/08 07:29:02;;;;;;;6.45;5.13;;;23.00;29.20;;;;;;5093094;28;20491;-60
2023/04/08 07:31:29;;;;;;;5.15;4.50;;;23.00;29.20;;;;;;5092771;28;20048;-60
2023/04/08 07:33:57;;;;;;;5.68;5.07;;;23.10;29.20;;;;;;5092948;28;20056;-60
2023/04/08 07:36:24;;;;;;;5.97;5.25;;;23.10;29.20;;;;;;5093172;28;20048;-60
2023/04/08 07:38:51;;;;;;;6.13;4.72;;;23.20;29.10;;;;;;5095530;28;20139;-60
2023/04/08 07:41:18;;;;;;;5.93;4.75;;;23.20;29.10;;;;;;5097003;28;20110;-60
2023/04/08 07:43:45;;;;;;;5.75;4.90;;;23.20;29.10;;;;;;5097079;28;20058;-60
2023/04/08 07:46:13;;;;;;;5.90;5.00;;;23.20;29.10;;;;;;5096728;28;20045;-60
2023/04/08 07:48:40;;;;;;;6.32;5.22;;;23.30;29.10;;;;;;5096936;28;20500;-60
2023/04/08 07:51:08;;;;;;;7.07;5.35;;;23.20;29.10;;;;;;5096640;28;20074;-60
2023/04/08 07:53:39;;;;;;;6.13;5.20;;;23.30;29.10;;;;;;5096858;28;20044;-60
2023/04/08 07:56:11;;;;;;;5.90;5.30;;;23.20;29.10;;;;;;5096985;28;20052;-60
2023/04/08 07:58:39;;;;;;;5.38;4.60;;;23.30;29.00;;;;;;5096782;28;20051;-60
2023/04/08 08:01:21;;;;;;;5.85;4.88;;;23.30;29.00;;;;;;5096579;28;20499;-60
2023/04/08 08:03:49;;;;;;;7.38;4.70;;;23.30;29.00;;;;;;5096944;28;20052;-60
2023/04/08 08:06:18;;;;;;;6.07;5.03;;;23.30;29.00;;;;;;5096468;28;20059;-60
2023/04/08 08:08:45;;;;;;;7.85;5.40;;;23.30;29.00;;;;;;5096418;28;20288;-60
2023/04/08 08:11:12;;;;;;;7.03;4.85;;;23.30;29.00;;;;;;5096700;28;20135;-60
2023/04/08 08:13:40;;;;;;;8.20;5.78;;;23.40;29.00;;;;;;5095898;28;20048;-60
2023/04/08 08:16:10;;;;;;;5.47;4.70;;;23.40;29.00;;;;;;5096560;28;20048;-60
2023/04/08 08:18:39;;;;;;;5.32;4.82;;;23.40;28.90;;;;;;5096286;28;20048;-60
2023/04/08 08:21:07;;;;;;;8.02;5.40;;;23.40;28.90;;;;;;5096110;28;20052;-60
2023/04/08 08:23:34;;;;;;;6.30;5.35;;;23.40;28.90;;;;;;5096525;28;20144;-60
2023/04/08 08:26:03;;;;;;;5.38;4.88;;;23.40;28.90;;;;;;5096319;28;20048;-60
2023/04/08 08:28:31;;;;;;;5.63;5.03;;;23.40;28.90;;;;;;5096225;28;20040;-60
2023/04/08 08:30:58;;;;;;;5.70;4.60;;;23.40;29.00;;;;;;5096245;28;20126;-60
2023/04/08 08:33:25;;;;;;;5.55;4.80;;;23.40;28.90;;;;;;5096386;28;20067;-60
2023/04/08 08:35:53;;;;;;;4.70;4.20;;;23.40;28.90;;;;;;5095893;28;20547;-60
2023/04/08 08:38:20;;;;;;;7.07;5.25;;;23.40;28.90;;;;;;5095948;28;20503;-60
2023/04/08 08:40:56;;;;;;;4.78;4.18;;;23.40;28.90;;;;;;5095823;28;20128;-59
2023/04/08 08:43:24;;;;;;;5.75;4.90;;;23.40;28.90;;;;;;5095921;28;20048;-60
2023/04/08 08:45:53;;;;;;;6.50;5.22;;;23.40;28.90;;;;;;5095730;28;20046;-60
2023/04/08 08:48:20;;;;;;;6.43;4.85;;;23.50;28.90;;;;;;5095790;28;20047;-60
2023/04/08 08:50:47;;;;;;;4.70;4.22;;;23.50;28.90;;;;;;5093370;28;20040;-60
2023/04/08 08:53:14;;;;;;;6.07;4.85;;;23.40;28.90;;;;;;5095606;28;20048;-59
2023/04/08 08:55:42;;;;;;;5.35;4.70;;;23.50;28.90;;;;;;5094640;28;20054;-60
2023/04/08 08:58:12;;;;;;;4.97;4.53;;;23.40;28.90;;;;;;5095477;28;20105;-59
2023/04/08 09:00:43;;;;;;;5.05;4.40;;;23.50;28.90;;;;;;5095373;28;20051;-60
2023/04/08 09:03:22;;;;;;;4.45;3.95;;;23.40;28.80;;;;;;5095285;28;20051;-60
2023/04/08 09:05:52;;;;;;;4.90;4.50;;;23.50;28.90;;;;;;5095389;28;20041;-60
2023/04/08 09:08:35;;;;;;;6.15;4.53;;;23.50;28.90;;;;;;5094217;28;20051;-60
2023/04/08 09:11:16;;;;;;;6.43;4.32;;;23.40;28.90;;;;;;5095147;28;20082;-60
2023/04/08 09:13:45;;;;;;;4.93;4.50;;;23.40;28.90;;;;;;5094521;28;20051;-60
2023/04/08 09:16:16;;;;;;;4.55;3.97;;;23.40;29.00;;;;;;5095076;28;20051;-60
2023/04/08 09:18:46;;;;;;;6.15;4.32;;;23.40;29.00;;;;;;5094969;28;20083;-60
2023/04/08 09:21:15;;;;;;;5.35;4.30;;;23.40;29.00;;;;;;5095379;28;20127;-60
2023/04/08 09:23:48;;;;;;;5.55;4.03;;;23.30;29.00;;;;;;5095391;28;20127;-60
2023/04/08 09:26:23;;;;;;;5.63;4.50;;;23.40;29.10;;;;;;5093601;28;20055;-59
2023/04/08 09:28:59;;;;;;;5.05;4.28;;;23.30;29.10;;;;;;5094511;28;20086;-60
2023/04/08 09:31:42;;;;;;;4.40;3.80;;;23.30;29.10;;;;;;5095121;28;20044;-60
2023/04/08 09:34:18;;;;;;;5.13;4.50;;;23.30;29.10;;;;;;5094752;28;20048;-60
2023/04/08 09:36:46;;;;;;;5.05;3.78;;;23.30;29.10;;;;;;5094684;28;20131;-60
2023/04/08 09:39:13;;;;;;;4.55;4.13;;;23.30;29.10;;;;;;5094464;28;20048;-60
2023/04/08 09:41:46;;;;;;;5.22;4.07;;;23.30;29.10;;;;;;5094647;28;20480;-60
2023/04/08 09:44:18;;;;;;;4.50;4.10;;;23.30;29.20;;;;;;5094680;28;20560;-60
2023/04/08 09:47:07;;;;;;;4.57;3.95;;;23.30;29.10;;;;;;5094961;28;20074;-61
2023/04/08 09:49:48;;;;;;;4.13;3.72;;;23.30;29.20;;;;;;5094414;28;20043;-60
2023/04/08 09:52:28;;;;;;;4.03;3.63;;;23.30;29.20;;;;;;5094342;28;20059;-60
2023/04/08 09:55:03;;;;;;;4.35;3.80;;;23.30;29.20;;;;;;5094496;28;20134;-60
2023/04/08 09:57:40;;;;;;;4.32;3.92;;;23.30;29.20;;;;;;5093797;28;20044;-60
2023/04/08 10:00:13;;;;;;;6.32;4.30;;;23.30;29.20;;;;;;5094271;28;20072;-60
2023/04/08 10:03:17;;;;;;;4.68;4.00;;;23.30;29.20;;;;;;5094146;28;20065;-60
2023/04/08 10:05:46;;;;;;;4.20;3.80;;;23.30;29.20;;;;;;5094229;28;20052;-60
2023/04/08 10:08:14;;;;;;;4.97;4.20;;;23.30;29.30;;;;;;5093321;28;20074;-60
2023/04/08 10:10:42;;;;;;;5.95;4.18;;;23.30;29.30;;;;;;5093962;28;20048;-60
2023/04/08 10:13:11;;;;;;;6.22;4.95;;;23.30;29.30;;;;;;5094453;28;20047;-60
2023/04/08 10:15:41;;;;;;;4.18;3.78;;;23.30;29.30;;;;;;5094383;28;20127;-59
2023/04/08 10:18:30;;;;;;;5.03;4.32;;;23.30;29.30;;;;;;5093848;28;20105;-60
2023/04/08 10:20:57;;;;;;;5.22;4.25;;;23.30;29.30;;;;;;5092707;28;20408;-60
2023/04/08 10:23:52;;;;;;;4.57;4.13;;;23.30;29.30;;;;;;5093836;28;20047;-60
2023/04/08 10:26:36;;;;;;;3.88;3.58;;;23.30;29.30;;;;;;5091550;28;20044;-60
2023/04/08 10:29:29;;;;;;;6.13;3.95;;;23.30;29.30;;;;;;5093883;28;20047;-60
2023/04/08 10:31:56;;;;;;;5.25;3.92;;;23.20;29.30;;;;;;5092052;28;20123;-60
2023/04/08 10:34:26;;;;;;;4.85;4.15;;;23.30;29.30;;;;;;5093582;28;20385;-60
2023/04/08 10:36:58;;;;;;;3.97;3.58;;;23.30;29.30;;;;;;5093753;28;20678;-60
2023/04/08 10:39:26;;;;;;;4.25;3.85;;;23.30;29.30;;;;;;5092376;28;20106;-60
2023/04/08 10:41:53;;;;;;;4.78;3.90;;;23.30;29.30;;;;;;5093223;28;20566;-60
2023/04/08 10:44:28;;;;;;;4.35;3.95;;;23.30;29.30;;;;;;5072980;28;20051;-60
2023/04/08 10:46:55;;;;;;;5.50;4.30;;;23.30;29.30;;;;;;5071229;28;20470;-62
2023/04/08 10:49:31;;;;;;;4.22;3.83;;;23.30;29.30;;;;;;5073179;28;20397;-60
2023/04/08 10:51:58;;;;;;;4.50;4.07;;;23.30;29.30;;;;;;5073060;28;20135;-61
2023/04/08 10:54:26;;;;;;;4.65;3.92;;;23.30;29.30;;;;;;5073084;28;20048;-60
2023/04/08 10:56:53;;;;;;;4.13;3.70;;;23.30;29.30;;;;;;5072717;28;20516;-60
2023/04/08 10:59:31;;;;;;;5.57;4.10;;;23.30;29.30;;;;;;5072595;28;20497;-60
2023/04/08 11:02:00;;;;;;;3.63;3.33;;;23.40;29.30;;;;;;5064026;28;20127;-60
2023/04/08 11:04:28;;;;;;;4.45;4.05;;;23.40;29.30;;;;;;5073017;28;20052;-60
2023/04/08 11:06:55;;;;;;;5.38;3.88;;;23.40;29.30;;;;;;5072108;28;20456;-60
2023/04/08 11:09:22;;;;;;;4.43;4.00;;;23.30;29.20;;;;;;5072710;28;20044;-60
2023/04/08 11:11:51;;;;;;;4.65;3.72;;;23.40;29.30;;;;;;5072430;28;20048;-60
2023/04/08 11:14:20;;;;;;;4.47;4.07;;;23.40;29.30;;;;;;5072539;28;20060;-60
2023/04/08 11:16:48;;;;;;;4.45;4.05;;;23.40;29.30;;;;;;5072486;28;20052;-60
2023/04/08 11:19:15;;;;;;;6.40;4.75;;;23.30;29.30;;;;;;5072015;28;20048;-60
2023/04/08 11:21:43;;;;;;;5.60;4.30;;;23.40;29.40;;;;;;5071872;28;20052;-60
2023/04/08 11:24:11;;;;;;;4.82;3.95;;;23.40;29.30;;;;;;5071858;28;20051;-60
2023/04/08 11:26:38;;;;;;;4.07;3.67;;;23.40;29.30;;;;;;5072267;28;20468;-60
2023/04/08 11:29:12;;;;;;;4.65;4.05;;;23.40;29.30;;;;;;5072099;28;20048;-60
2023/04/08 11:31:42;;;;;;;4.78;4.28;;;23.40;29.30;;;;;;5071902;28;20094;-60
2023/04/08 11:34:10;;;;;;;4.43;3.85;;;23.40;29.20;;;;;;5072789;28;20109;-60
2023/04/08 11:36:40;;;;;;;4.47;3.85;;;23.50;29.70;;;;;;5070721;28;20141;-60
2023/04/08 11:39:11;;;;;;;4.30;3.88;;;23.50;29.30;;;;;;5071407;28;20473;-60
2023/04/08 11:41:42;;;;;;;4.63;3.75;;;23.50;29.30;;;;;;5071815;28;20124;-60
2023/04/08 11:44:09;;;;;;;3.90;3.38;;;23.50;29.20;;;;;;5073046;28;20070;-60
2023/04/08 11:46:36;;;;;;;4.25;3.75;;;23.60;29.30;;;;;;5072678;28;20052;-60
2023/04/08 11:49:06;;;;;;;3.90;3.50;;;23.60;29.30;;;;;;5073005;28;20128;-60
2023/04/08 11:51:53;;;;;;;4.57;3.97;;;23.60;29.30;;;;;;5072559;28;20080;-60
2023/04/08 11:54:30;;;;;;;5.03;3.90;;;23.60;29.30;;;;;;5072202;28;20052;-62
2023/04/08 11:56:58;;;;;;;4.78;3.65;;;23.60;29.30;;;;;;5072702;28;20078;-61
2023/04/08 11:59:26;;;;;;;5.13;3.53;;;23.60;29.30;;;;;;5072510;28;20489;-64
2023/04/08 12:01:55;;;;;;;4.70;3.90;;;23.60;29.30;;;;;;5072844;28;20110;-62
2023/04/08 12:04:23;;;;;;;5.43;3.83;;;23.60;29.30;;;;;;5072160;28;20048;-63
2023/04/08 12:06:51;;;;;;;4.05;3.35;;;23.50;29.30;;;;;;5072841;28;20142;-60
2023/04/08 12:09:18;;;;;;;4.50;3.47;;;23.50;29.30;;;;;;5072396;28;20044;-62
2023/04/08 12:11:46;;;;;;;4.03;3.63;;;23.50;29.40;;;;;;5072470;28;20059;-68
2023/04/08 12:14:14;;;;;;;3.65;3.35;;;23.50;29.40;;;;;;5072788;28;20040;-61
2023/04/08 12:16:41;;;;;;;4.05;3.60;;;23.50;29.40;;;;;;5072287;28;20139;-65
2023/04/08 12:19:08;;;;;;;4.00;3.65;;;23.50;29.40;;;;;;5072760;28;20087;-64
2023/04/08 12:21:37;;;;;;;3.47;2.85;;;23.50;29.40;;;;;;5072239;28;20045;-66
2023/04/08 12:24:05;;;;;;;4.18;3.78;;;23.50;29.40;;;;;;5072657;28;20048;-63
2023/04/08 12:26:32;;;;;;;4.05;3.70;;;23.50;29.40;;;;;;5075701;28;20044;-65
2023/04/08 12:28:59;;;;;;;4.88;4.20;;;23.50;29.40;;;;;;5076151;28;20053;-60
2023/04/08 12:31:27;;;;;;;3.90;3.53;;;23.50;29.40;;;;;;5075667;28;20050;-64
2023/04/08 12:33:54;;;;;;;3.75;3.00;;;23.50;29.40;;;;;;5075813;28;20493;-60
2023/04/08 12:36:22;;;;;;;3.88;3.28;;;23.50;29.50;;;;;;5075545;28;20062;-64
2023/04/08 12:38:49;;;;;;;3.72;2.97;;;23.50;29.50;;;;;;5076086;28;20117;-63
2023/04/08 12:41:16;;;;;;;4.55;3.55;;;23.50;29.50;;;;;;5074676;28;20501;-59
2023/04/08 12:43:44;;;;;;;4.30;3.90;;;23.50;29.50;;;;;;5075117;28;20464;-60
2023/04/08 12:46:11;;;;;;;4.03;3.63;;;23.50;29.50;;;;;;5074037;28;20045;-60
2023/04/08 12:48:39;;;;;;;4.10;3.70;;;23.40;29.50;;;;;;5094562;28;20151;-60
2023/04/08 12:51:09;;;;;;;3.20;2.90;;;23.50;29.50;;;;;;5093031;28;20500;-60
2023/04/08 12:53:36;;;;;;;4.22;3.85;;;23.40;29.50;;;;;;5095459;28;20408;-60
2023/04/08 12:56:03;;;;;;;3.67;3.38;;;23.40;29.60;;;;;;5094628;28;20564;-60
2023/04/08 12:58:30;;;;;;;5.25;3.42;;;23.40;29.60;;;;;;5094779;28;20123;-60